Terminal Aerodrome Forecast
Issued by NWS Shreveport, LA

Home | Current Version | Previous Version | Text Only | Print | Product List | Glossary On
Versions: 1 2 3 4 5 6 7 8 9 10 11 12 13 14
000
FTUS44 KSHV 170800 AAA
TAFELD
TAF AMD
KELD 170825Z 1708/1806 00000KT 4SM BR SCT250
      TEMPO 1708/1712 1SM BR BKN005
     FM171400 06004KT P6SM SCT035 SCT250
     FM171800 14005KT P6SM SCT050 SCT250
     FM180100 VRB03KT P6SM BKN120 BKN250=

USA.gov is the U.S. government's official web portal to all federal, state and local government web resources and services.